createdAt,value
2022-10-16T00:00:54.419Z,50.65
2022-10-16T00:03:20.977Z,50.47
2022-10-16T00:05:47.575Z,50.53
2022-10-16T00:08:14.853Z,50.46
2022-10-16T00:10:41.786Z,50.28
2022-10-16T00:13:09.190Z,50.40
2022-10-16T00:15:40.353Z,50.43
2022-10-16T00:18:06.987Z,50.67
2022-10-16T00:20:37.947Z,50.92
2022-10-16T00:23:05.692Z,50.63
2022-10-16T00:25:33.922Z,50.77
2022-10-16T00:28:01.773Z,50.75
2022-10-16T00:30:29.139Z,50.72
2022-10-16T00:32:56.240Z,50.86
2022-10-16T00:35:22.908Z,50.77
2022-10-16T00:37:49.523Z,51.08
2022-10-16T00:40:16.142Z,51.12
2022-10-16T00:42:42.707Z,51.03
2022-10-16T00:45:10.081Z,51.45
2022-10-16T00:47:41.847Z,51.43
2022-10-16T00:50:20.097Z,51.64
2022-10-16T00:52:47.822Z,51.72
2022-10-16T00:55:15.135Z,51.45
2022-10-16T00:57:42.907Z,51.89
2022-10-16T01:00:10.565Z,51.94
2022-10-16T01:02:37.620Z,51.78
2022-10-16T01:05:05.446Z,51.65
2022-10-16T01:07:32.017Z,51.85
2022-10-16T01:10:05.640Z,51.66
2022-10-16T01:12:32.289Z,51.74
2022-10-16T01:15:11.684Z,51.95
2022-10-16T01:17:42.591Z,51.75
2022-10-16T01:20:12.416Z,52.08
2022-10-16T01:22:57.521Z,51.83
2022-10-16T01:25:31.391Z,51.94
2022-10-16T01:27:58.504Z,52.18
2022-10-16T01:30:27.444Z,52.08
2022-10-16T01:32:57.310Z,52.21
2022-10-16T01:35:29.854Z,52.45
2022-10-16T01:37:56.447Z,52.42
2022-10-16T01:40:24.861Z,52.15
2022-10-16T01:42:54.191Z,52.37
2022-10-16T01:45:21.336Z,52.18
2022-10-16T01:47:49.183Z,52.15
2022-10-16T01:50:17.259Z,52.14
2022-10-16T01:52:45.937Z,52.13
2022-10-16T01:55:14.511Z,52.19
2022-10-16T01:57:43.517Z,52.37
2022-10-16T02:00:11.937Z,52.21
2022-10-16T02:02:40.074Z,52.25
2022-10-16T02:05:11.811Z,52.20
2022-10-16T02:07:38.474Z,52.30
2022-10-16T02:10:05.494Z,52.54
2022-10-16T02:12:33.696Z,52.60
2022-10-16T02:15:00.546Z,52.41
2022-10-16T02:17:28.540Z,52.65
2022-10-16T02:19:57.153Z,52.51
2022-10-16T02:22:24.254Z,52.39
2022-10-16T02:24:55.215Z,52.62
2022-10-16T02:27:42.827Z,52.80
2022-10-16T02:30:09.572Z,52.51
2022-10-16T02:32:38.433Z,52.68
2022-10-16T02:35:05.520Z,52.72
2022-10-16T02:37:32.824Z,52.92
2022-10-16T02:39:59.617Z,52.87
2022-10-16T02:42:39.466Z,52.69
2022-10-16T02:45:06.892Z,52.49
2022-10-16T02:47:33.460Z,52.98
2022-10-16T02:50:00.401Z,52.81
2022-10-16T02:52:27.277Z,52.80
2022-10-16T02:54:54.047Z,52.87
2022-10-16T02:57:20.707Z,53.02
2022-10-16T02:59:47.319Z,52.84
2022-10-16T03:02:13.999Z,53.01
2022-10-16T03:04:40.634Z,52.74
2022-10-16T03:07:07.243Z,52.77
2022-10-16T03:09:33.813Z,52.59
2022-10-16T03:12:00.377Z,52.46
2022-10-16T03:17:14.275Z,52.47
2022-10-16T03:19:40.914Z,52.32
2022-10-16T03:22:07.482Z,52.74
2022-10-16T03:24:34.042Z,52.69
2022-10-16T03:27:00.728Z,52.85
2022-10-16T03:29:27.469Z,52.50
2022-10-16T03:31:54.241Z,52.70
2022-10-16T03:34:20.826Z,52.58
2022-10-16T03:36:47.464Z,52.40
2022-10-16T03:39:14.180Z,52.61
2022-10-16T03:41:40.747Z,52.52
2022-10-16T03:44:07.368Z,52.68
2022-10-16T03:46:33.938Z,52.64
2022-10-16T03:49:00.486Z,53.02
2022-10-16T03:51:27.113Z,52.75
2022-10-16T03:53:54.242Z,52.83
2022-10-16T03:56:20.799Z,52.51
2022-10-16T03:58:47.380Z,52.60
2022-10-16T04:01:14.010Z,52.66
2022-10-16T04:03:40.728Z,52.58
2022-10-16T04:06:07.357Z,52.81
2022-10-16T04:08:36.063Z,52.76
2022-10-16T04:11:02.801Z,52.57
2022-10-16T04:13:30.184Z,52.54
2022-10-16T04:15:56.756Z,52.85
2022-10-16T04:18:23.438Z,52.41
2022-10-16T04:20:50.044Z,52.52
2022-10-16T04:23:16.692Z,52.87
2022-10-16T04:25:43.379Z,52.88
2022-10-16T04:28:09.981Z,52.61
2022-10-16T04:30:38.668Z,52.65
2022-10-16T04:33:05.249Z,52.77
2022-10-16T04:35:31.954Z,53.09
2022-10-16T04:37:59.100Z,52.68
2022-10-16T04:40:25.675Z,53.02
2022-10-16T04:42:52.375Z,53.07
2022-10-16T04:45:19.019Z,53.32
2022-10-16T04:47:45.636Z,52.96
2022-10-16T04:50:12.283Z,53.35
2022-10-16T04:52:38.986Z,53.29
2022-10-16T04:55:07.017Z,53.20
2022-10-16T04:57:41.961Z,53.20
2022-10-16T05:00:09.319Z,53.01
2022-10-16T05:02:35.998Z,52.97
2022-10-16T05:05:02.608Z,53.36
2022-10-16T05:07:34.366Z,53.03
2022-10-16T05:10:02.807Z,53.40
2022-10-16T05:12:29.422Z,53.11
2022-10-16T05:14:59.804Z,53.24
2022-10-16T05:17:44.753Z,53.27
2022-10-16T05:20:11.800Z,53.11
2022-10-16T05:22:38.366Z,53.57
2022-10-16T05:25:05.553Z,53.45
2022-10-16T05:27:42.414Z,53.55
2022-10-16T05:30:11.642Z,53.39
2022-10-16T05:32:39.144Z,53.46
2022-10-16T05:35:08.708Z,53.39
2022-10-16T05:37:38.365Z,53.51
2022-10-16T05:40:06.118Z,53.17
2022-10-16T05:42:32.688Z,53.39
2022-10-16T05:44:59.241Z,53.20
2022-10-16T05:47:25.917Z,53.32
2022-10-16T05:49:52.714Z,53.40
2022-10-16T05:52:19.390Z,53.54
2022-10-16T05:54:46.057Z,53.43
2022-10-16T05:57:12.604Z,53.15
2022-10-16T05:59:39.322Z,53.59
2022-10-16T06:02:06.008Z,53.20
2022-10-16T06:04:32.676Z,53.38
2022-10-16T06:07:01.492Z,53.46
2022-10-16T06:09:28.079Z,53.25
2022-10-16T06:11:54.648Z,53.25
2022-10-16T06:14:21.222Z,53.22
2022-10-16T06:16:48.529Z,53.63
2022-10-16T06:19:15.319Z,53.94
2022-10-16T06:21:42.000Z,54.37
2022-10-16T06:24:09.210Z,54.54
2022-10-16T06:26:35.819Z,54.83
2022-10-16T06:29:02.585Z,54.61
2022-10-16T06:31:32.167Z,54.73
2022-10-16T06:33:59.274Z,54.89
2022-10-16T06:36:26.178Z,55.22
2022-10-16T06:38:52.768Z,55.37
2022-10-16T06:41:20.996Z,54.99
2022-10-16T06:43:47.791Z,55.45
2022-10-16T06:46:16.105Z,55.63
2022-10-16T06:48:42.763Z,55.23
2022-10-16T06:51:12.108Z,55.38
2022-10-16T06:54:00.955Z,55.51
2022-10-16T06:56:28.478Z,54.88
2022-10-16T06:58:55.190Z,55.22
2022-10-16T07:01:23.233Z,55.34
2022-10-16T07:03:50.304Z,55.09
2022-10-16T07:06:18.398Z,54.89
2022-10-16T07:08:45.891Z,55.29
2022-10-16T07:11:14.167Z,55.24
2022-10-16T07:13:41.703Z,55.19
2022-10-16T07:16:09.655Z,55.19
2022-10-16T07:18:36.519Z,54.95
2022-10-16T07:21:06.215Z,54.82
2022-10-16T07:23:32.801Z,54.74
2022-10-16T07:25:59.377Z,55.00
2022-10-16T07:28:26.334Z,54.75
2022-10-16T07:30:52.960Z,54.61
2022-10-16T07:33:19.563Z,54.54
2022-10-16T07:35:50.429Z,54.30
2022-10-16T07:38:17.711Z,54.20
2022-10-16T07:40:44.374Z,54.18
2022-10-16T07:43:10.989Z,54.29
2022-10-16T11:04:08.613Z,51.69
2022-10-16T11:09:40.783Z,51.59
2022-10-16T11:12:10.504Z,51.39
2022-10-16T11:14:44.601Z,50.82
2022-10-16T11:17:27.422Z,50.88
2022-10-16T11:20:06.215Z,50.63
2022-10-16T11:22:38.793Z,50.83
2022-10-16T11:25:05.414Z,50.58
2022-10-16T11:27:40.580Z,50.50
2022-10-16T11:30:14.803Z,50.86
2022-10-16T11:32:51.798Z,50.61
2022-10-16T11:35:42.240Z,50.69
2022-10-16T11:38:14.880Z,50.48
2022-10-16T11:40:43.323Z,50.46
2022-10-16T11:43:21.809Z,50.56
2022-10-16T11:45:52.666Z,50.09
2022-10-16T11:48:24.075Z,49.86
2022-10-16T11:51:07.078Z,49.96
2022-10-16T11:53:36.909Z,49.73
2022-10-16T11:56:05.070Z,49.72
2022-10-16T11:58:42.501Z,49.23
2022-10-16T12:01:18.063Z,48.89
2022-10-16T12:03:50.632Z,49.18
2022-10-16T12:06:21.728Z,49.13
2022-10-16T12:08:49.150Z,48.92
2022-10-16T12:11:28.340Z,48.43
2022-10-16T12:14:08.376Z,48.50
2022-10-16T12:16:35.331Z,48.73
2022-10-16T12:19:16.420Z,48.62
2022-10-16T12:21:56.951Z,48.85
2022-10-16T12:24:33.212Z,48.37
2022-10-16T12:27:00.527Z,48.18
2022-10-16T12:29:32.964Z,48.40
2022-10-16T12:32:01.091Z,48.51
2022-10-16T12:34:30.534Z,48.04
2022-10-16T12:36:57.779Z,48.19
2022-10-16T12:39:26.173Z,48.29
2022-10-16T12:42:04.606Z,48.09
2022-10-16T12:44:36.502Z,48.53
2022-10-16T12:47:03.724Z,48.53
2022-10-16T12:49:32.319Z,48.50
2022-10-16T12:51:59.291Z,48.42
2022-10-16T12:54:31.008Z,48.09
2022-10-16T12:57:06.056Z,48.25
2022-10-16T12:59:51.752Z,48.50
2022-10-16T13:02:42.985Z,48.24
2022-10-16T13:05:21.676Z,48.46
2022-10-16T13:07:49.307Z,48.13
2022-10-16T13:10:30.005Z,48.28
2022-10-16T13:12:59.468Z,47.98
2022-10-16T13:15:36.977Z,48.05
2022-10-16T13:18:09.126Z,47.75
2022-10-16T13:20:54.714Z,48.14
2022-10-16T13:23:39.839Z,47.86
2022-10-16T13:26:09.261Z,47.70
2022-10-16T13:28:37.469Z,48.11
2022-10-16T13:31:05.010Z,48.06
2022-10-16T13:33:38.264Z,47.93
2022-10-16T13:36:05.478Z,47.96
2022-10-16T13:38:33.556Z,47.52
2022-10-16T13:41:04.609Z,47.81
2022-10-16T13:43:35.975Z,47.78
2022-10-16T13:46:04.259Z,47.74
2022-10-16T13:48:31.887Z,48.12
2022-10-16T13:51:01.882Z,48.08
2022-10-16T13:53:28.652Z,47.90
2022-10-16T13:55:55.295Z,48.05
2022-10-16T13:58:22.309Z,48.07
2022-10-16T14:01:03.081Z,47.94
2022-10-16T14:03:31.022Z,47.90
2022-10-16T14:05:59.655Z,48.10
2022-10-16T14:08:27.536Z,47.96
2022-10-16T14:10:56.819Z,48.27
2022-10-16T14:13:44.041Z,47.78
2022-10-16T14:16:11.963Z,48.09
2022-10-16T14:18:40.064Z,48.02
2022-10-16T14:21:08.173Z,47.95
2022-10-16T14:23:39.881Z,48.37
2022-10-16T14:26:16.933Z,48.18
2022-10-16T14:28:45.551Z,48.27
2022-10-16T14:31:27.350Z,48.52
2022-10-16T14:33:55.498Z,48.42
2022-10-16T14:36:23.466Z,48.69
2022-10-16T14:39:10.777Z,48.95
2022-10-16T14:42:00.525Z,48.91
2022-10-16T14:44:34.822Z,49.09
2022-10-16T14:47:14.850Z,48.82
2022-10-16T14:49:42.993Z,48.91
2022-10-16T14:52:19.550Z,48.57
2022-10-16T14:54:50.442Z,48.72
2022-10-16T14:57:18.716Z,48.96
2022-10-16T14:59:46.573Z,48.76
2022-10-16T15:02:26.711Z,48.50
2022-10-16T15:04:53.485Z,48.82
2022-10-16T15:07:20.470Z,48.87
2022-10-16T15:09:49.284Z,48.41
2022-10-16T15:12:16.460Z,48.92
2022-10-16T15:14:43.159Z,48.84
2022-10-16T15:17:11.248Z,48.45
2022-10-16T15:19:38.081Z,48.84
2022-10-16T15:22:04.938Z,48.65
2022-10-16T15:24:31.597Z,48.58
2022-10-16T15:26:58.235Z,48.42
2022-10-16T15:29:24.826Z,48.64
2022-10-16T15:31:54.624Z,48.76
2022-10-16T15:34:21.360Z,48.56
2022-10-16T15:36:47.990Z,48.64
2022-10-16T15:39:19.225Z,48.50
2022-10-16T15:41:57.819Z,48.32
2022-10-16T15:44:26.930Z,48.72
2022-10-16T15:46:55.908Z,48.79
2022-10-16T15:49:22.925Z,48.83
2022-10-16T15:51:57.423Z,48.70
2022-10-16T15:54:24.542Z,48.42
2022-10-16T15:56:51.644Z,48.52
2022-10-16T15:59:18.750Z,48.60
2022-10-16T16:01:54.655Z,48.79
2022-10-16T16:07:11.567Z,48.66
2022-10-16T16:09:38.866Z,48.53
2022-10-16T16:12:05.874Z,48.68
2022-10-16T16:14:32.665Z,48.83
2022-10-16T16:16:59.659Z,49.25
2022-10-16T16:19:26.403Z,49.38
2022-10-16T16:21:56.155Z,49.50
2022-10-16T16:24:22.994Z,49.20
2022-10-16T16:26:49.880Z,49.45
2022-10-16T16:29:17.282Z,49.72
2022-10-16T16:31:54.143Z,49.33
2022-10-16T16:34:21.782Z,49.43
2022-10-16T16:36:48.726Z,49.41
2022-10-16T16:39:15.468Z,49.46
2022-10-16T16:41:46.241Z,49.42
2022-10-16T16:44:13.772Z,49.66
2022-10-16T16:46:40.934Z,49.43
2022-10-16T16:49:08.117Z,49.42
2022-10-16T16:51:38.305Z,49.88
2022-10-16T16:54:08.687Z,49.65
2022-10-16T16:56:36.050Z,49.51
2022-10-16T16:59:03.063Z,49.35
2022-10-16T17:01:30.279Z,49.69
2022-10-16T17:03:58.208Z,49.74
2022-10-16T17:06:26.528Z,49.30
2022-10-16T17:08:53.390Z,49.34
2022-10-16T17:11:21.594Z,49.71
2022-10-16T17:13:49.997Z,49.74
2022-10-16T17:16:19.331Z,49.75
2022-10-16T17:18:46.036Z,49.69
2022-10-16T17:21:13.691Z,49.63
2022-10-16T17:23:40.503Z,49.39
2022-10-16T17:26:08.415Z,49.76
2022-10-16T17:28:35.327Z,49.61
2022-10-16T17:31:16.006Z,49.61
2022-10-16T17:33:43.373Z,49.29
2022-10-16T17:36:10.824Z,49.44
2022-10-16T17:38:37.768Z,49.92
2022-10-16T17:41:11.117Z,49.79
2022-10-16T17:43:38.009Z,49.66
2022-10-16T17:46:04.771Z,49.92
2022-10-16T17:48:31.405Z,49.76
2022-10-16T17:50:57.989Z,49.99
2022-10-16T17:53:24.603Z,50.00
2022-10-16T17:55:57.148Z,50.04
2022-10-16T17:58:23.911Z,50.05
2022-10-16T18:00:50.715Z,49.77
2022-10-16T18:03:17.321Z,49.89
2022-10-16T18:05:43.935Z,50.19
2022-10-16T18:08:10.530Z,50.14
2022-10-16T18:10:37.413Z,50.15
2022-10-16T18:13:04.044Z,50.04
2022-10-16T18:15:30.728Z,49.88
2022-10-16T18:18:04.314Z,49.90
2022-10-16T18:20:30.908Z,49.91
2022-10-16T18:22:57.505Z,50.01
2022-10-16T18:25:24.145Z,50.46
2022-10-16T18:27:50.747Z,49.95
2022-10-16T18:30:17.375Z,50.25
2022-10-16T18:32:44.063Z,50.22
2022-10-16T18:35:11.020Z,50.30
2022-10-16T18:37:37.615Z,50.62
2022-10-16T18:40:04.857Z,50.16
2022-10-16T18:42:32.023Z,50.30
2022-10-16T18:44:58.593Z,50.54
2022-10-16T18:47:25.552Z,50.57
2022-10-16T18:52:17.870Z,50.96
2022-10-16T18:54:51.344Z,51.10
2022-10-16T18:57:17.983Z,51.29
2022-10-16T18:59:44.615Z,51.23
2022-10-16T19:02:12.378Z,51.20
2022-10-16T19:04:38.962Z,51.03
2022-10-16T19:07:05.669Z,51.36
2022-10-16T19:09:32.288Z,50.92
2022-10-16T19:11:59.837Z,51.50
2022-10-16T19:14:26.559Z,51.23
2022-10-16T19:16:53.307Z,51.50
2022-10-16T19:19:20.293Z,52.08
2022-10-16T19:22:11.917Z,52.63
2022-10-16T19:24:39.062Z,52.47
2022-10-16T19:27:05.870Z,52.27
2022-10-16T19:29:32.948Z,52.07
2022-10-16T19:32:05.113Z,51.94
2022-10-16T19:34:34.603Z,51.53
2022-10-16T19:37:01.192Z,51.48
2022-10-16T19:39:27.917Z,51.55
2022-10-16T19:42:00.590Z,51.63
2022-10-16T19:44:27.324Z,51.64
2022-10-16T19:46:53.939Z,51.54
2022-10-16T19:49:22.100Z,51.35
2022-10-16T19:51:55.252Z,51.43
2022-10-16T19:54:22.029Z,51.63
2022-10-16T19:56:48.693Z,51.41
2022-10-16T19:59:19.244Z,51.63
2022-10-16T20:01:58.763Z,51.84
2022-10-16T20:04:25.884Z,51.60
2022-10-16T20:06:52.560Z,51.82
2022-10-16T20:09:19.202Z,51.57
2022-10-16T20:11:53.163Z,51.46
2022-10-16T20:14:19.905Z,51.81
2022-10-16T20:16:46.664Z,51.36
2022-10-16T20:19:13.946Z,51.41
2022-10-16T20:21:56.839Z,51.45
2022-10-16T20:24:23.514Z,51.47
2022-10-16T20:26:50.162Z,51.78
2022-10-16T20:29:16.839Z,51.93
2022-10-16T20:31:51.821Z,51.97
2022-10-16T20:34:18.483Z,51.59
2022-10-16T20:36:45.640Z,52.00
2022-10-16T20:39:13.970Z,51.60
2022-10-16T20:41:57.011Z,51.87
2022-10-16T20:44:23.631Z,52.01
2022-10-16T20:46:50.288Z,51.92
2022-10-16T20:49:35.878Z,51.75
2022-10-16T20:52:03.630Z,52.50
2022-10-16T20:54:30.299Z,52.23
2022-10-16T20:56:58.124Z,52.93
2022-10-16T20:59:24.786Z,53.13
2022-10-16T21:01:54.409Z,52.63
2022-10-16T21:04:21.239Z,53.05
2022-10-16T21:06:47.828Z,52.78
2022-10-16T21:09:14.574Z,52.76
2022-10-16T21:11:46.377Z,53.12
2022-10-16T21:14:13.175Z,53.04
2022-10-16T21:16:39.847Z,53.11
2022-10-16T21:19:06.656Z,52.84
2022-10-16T21:21:34.921Z,52.87
2022-10-16T21:24:02.068Z,52.94
2022-10-16T21:26:28.951Z,52.87
2022-10-16T21:29:00.174Z,52.71
2022-10-16T21:31:26.982Z,53.23
2022-10-16T21:33:53.797Z,53.16
2022-10-16T21:36:22.372Z,52.98
2022-10-16T21:38:49.385Z,52.95
2022-10-16T21:41:22.892Z,53.04
2022-10-16T21:43:49.816Z,53.14
2022-10-16T21:46:17.728Z,53.12
2022-10-16T21:48:44.440Z,53.42
2022-10-16T21:51:11.996Z,52.95
2022-10-16T21:53:39.001Z,53.10
2022-10-16T21:56:06.644Z,53.34
2022-10-16T21:58:33.735Z,53.38
2022-10-16T22:01:06.351Z,53.38
2022-10-16T22:03:33.169Z,53.36
2022-10-16T22:06:06.962Z,54.20
2022-10-16T22:08:34.503Z,54.41
2022-10-16T22:11:22.332Z,54.78
2022-10-16T22:13:52.641Z,55.02
2022-10-16T22:16:23.451Z,55.20
2022-10-16T22:18:51.932Z,54.95
2022-10-16T22:21:18.696Z,55.07
2022-10-16T22:23:45.291Z,55.24
2022-10-16T22:26:12.693Z,55.72
2022-10-16T22:28:40.084Z,55.90
2022-10-16T22:31:08.344Z,55.48
2022-10-16T22:33:35.256Z,55.35
2022-10-16T22:36:02.656Z,55.43
2022-10-16T22:38:30.885Z,55.59
2022-10-16T22:41:01.506Z,55.96
2022-10-16T22:43:28.118Z,55.68
2022-10-16T22:45:54.716Z,55.83
2022-10-16T22:48:22.090Z,56.15
2022-10-16T22:50:49.049Z,56.25
2022-10-16T22:53:15.715Z,55.81
2022-10-16T22:55:42.429Z,56.67
2022-10-16T22:58:09.025Z,56.48
2022-10-16T23:00:35.628Z,56.11
2022-10-16T23:03:02.277Z,56.29
2022-10-16T23:05:28.925Z,56.40
2022-10-16T23:07:55.617Z,56.25
2022-10-16T23:10:27.675Z,56.52
2022-10-16T23:12:54.307Z,56.28
2022-10-16T23:15:20.940Z,56.59
2022-10-16T23:17:47.536Z,56.73
2022-10-16T23:20:14.208Z,56.91
2022-10-16T23:22:40.811Z,56.69
2022-10-16T23:25:09.216Z,56.82
2022-10-16T23:27:35.820Z,56.92
2022-10-16T23:30:02.469Z,56.87
2022-10-16T23:32:29.447Z,57.10
2022-10-16T23:34:56.309Z,57.46
2022-10-16T23:37:22.941Z,57.00
2022-10-16T23:39:50.309Z,57.68
2022-10-16T23:42:16.978Z,57.82
2022-10-16T23:44:43.677Z,57.88
2022-10-16T23:47:10.301Z,58.14
2022-10-16T23:49:36.908Z,58.24
2022-10-16T23:52:03.937Z,58.18
2022-10-16T23:54:30.638Z,58.55
2022-10-16T23:56:57.385Z,58.61
2022-10-16T23:59:24.099Z,58.52
